Time;durP1;ratioP1;P1;durP2;ratioP2;P2;SDS_P1;SDS_P2;PMS_P1;PMS_P2;Temp;Humidity;BMP_temperature;BMP_pressure;BME280_temperature;BME280_humidity;BME280_pressure;Samples;Min_cycle;Max_cycle;Signal;HPM_P1;HPM_P2
2021/11/28 00:01:06;;;;;;;6.10;3.08;;;;;;;;;;5012654;28;20050;-64
2021/11/28 00:03:35;;;;;;;6.32;2.55;;;;;;;;;;5016993;28;20860;-64
2021/11/28 00:06:06;;;;;;;4.05;2.63;;;;;;;;;;5018023;28;20055;-64
2021/11/28 00:09:00;;;;;;;4.38;2.63;;;;;;;;;;5021207;28;20053;-64
2021/11/28 00:11:30;;;;;;;5.47;2.97;;;;;;;;;;5021064;28;20049;-64
2021/11/28 00:14:09;;;;;;;4.35;2.53;;;;;;;;;;5011284;28;20084;-64
2021/11/28 00:16:37;;;;;;;5.88;2.50;;;;;;;;;;4994019;28;20046;-64
2021/11/28 00:19:06;;;;;;;4.45;2.35;;;;;;;;;;5020260;28;20084;-64
2021/11/28 00:21:36;;;;;;;4.75;2.30;;;;;;;;;;5001640;28;20057;-64
2021/11/28 00:24:05;;;;;;;6.50;2.78;;;;;;;;;;5012105;28;20064;-64
2021/11/28 00:26:34;;;;;;;6.32;2.67;;;;;;;;;;5013204;28;20053;-64
2021/11/28 00:29:08;;;;;;;3.13;1.95;;;;;;;;;;5016870;28;20046;-64
2021/11/28 00:31:36;;;;;;;4.70;2.47;;;;;;;;;;5020177;28;20054;-64
2021/11/28 00:34:06;;;;;;;6.07;2.95;;;;;;;;;;5028571;28;20417;-64
2021/11/28 00:36:34;;;;;;;3.63;2.17;;;;;;;;;;5017533;28;20079;-64
2021/11/28 00:39:03;;;;;;;3.42;2.00;;;;;;;;;;5016677;28;20045;-64
2021/11/28 00:41:32;;;;;;;3.58;2.17;;;;;;;;;;5016355;28;20056;-64
2021/11/28 00:44:00;;;;;;;4.68;2.25;;;;;;;;;;5011895;28;20108;-64
2021/11/28 00:46:32;;;;;;;4.03;2.28;;;;;;;;;;5013311;28;20214;-64
2021/11/28 00:49:02;;;;;;;3.47;2.25;;;;;;;;;;5023915;28;20053;-64
2021/11/28 00:51:36;;;;;;;4.50;2.28;;;;;;;;;;5013389;28;20264;-64
2021/11/28 00:54:05;;;;;;;2.63;2.22;;;;;;;;;;5019417;28;20144;-64
2021/11/28 00:56:34;;;;;;;5.20;2.20;;;;;;;;;;5011751;28;20041;-64
2021/11/28 00:59:02;;;;;;;3.80;2.10;;;;;;;;;;5019959;28;20069;-64
2021/11/28 01:01:33;;;;;;;2.70;2.00;;;;;;;;;;5023840;28;20049;-64
2021/11/28 01:04:02;;;;;;;3.63;2.28;;;;;;;;;;5018298;28;20049;-64
2021/11/28 01:06:32;;;;;;;2.97;2.05;;;;;;;;;;5021050;28;20049;-64
2021/11/28 01:09:01;;;;;;;2.80;1.90;;;;;;;;;;5029370;28;20369;-64
2021/11/28 01:11:32;;;;;;;3.78;2.47;;;;;;;;;;5003535;28;20710;-64
2021/11/28 01:14:00;;;;;;;5.90;2.47;;;;;;;;;;5011183;28;20057;-64
2021/11/28 01:16:35;;;;;;;3.53;2.00;;;;;;;;;;5009926;28;20480;-64
2021/11/28 01:19:04;;;;;;;3.47;2.20;;;;;;;;;;5013515;28;20060;-64
2021/11/28 01:21:33;;;;;;;5.18;2.20;;;;;;;;;;5023755;28;20046;-64
2021/11/28 01:24:01;;;;;;;6.38;2.45;;;;;;;;;;5019304;28;20079;-64
2021/11/28 01:26:31;;;;;;;4.80;2.80;;;;;;;;;;5012484;28;20054;-64
2021/11/28 01:29:19;;;;;;;5.59;2.51;;;;;;;;;;3013300;28;10003412;-64
2021/11/28 01:31:49;;;;;;;5.40;2.58;;;;;;;;;;3280912;28;10001102;-65
2021/11/28 01:34:17;;;;;;;5.57;2.35;;;;;;;;;;5012622;28;20121;-64
2021/11/28 01:36:46;;;;;;;5.93;2.58;;;;;;;;;;5013252;28;20048;-64
2021/11/28 01:39:14;;;;;;;3.72;2.17;;;;;;;;;;5011928;28;20408;-64
2021/11/28 01:41:45;;;;;;;6.30;2.55;;;;;;;;;;5020939;28;20440;-64
2021/11/28 01:44:14;;;;;;;3.83;2.42;;;;;;;;;;5011388;28;20069;-64
2021/11/28 01:46:43;;;;;;;4.93;2.28;;;;;;;;;;5011363;28;20046;-64
2021/11/28 01:49:13;;;;;;;3.85;2.08;;;;;;;;;;5024934;28;20400;-64
2021/11/28 01:51:42;;;;;;;4.07;1.83;;;;;;;;;;5012766;28;20140;-64
2021/11/28 01:54:12;;;;;;;2.42;1.73;;;;;;;;;;5020732;28;20403;-64
2021/11/28 01:56:42;;;;;;;2.90;1.65;;;;;;;;;;5025797;28;20101;-64
2021/11/28 01:59:11;;;;;;;2.60;1.58;;;;;;;;;;5028805;28;20061;-64
2021/11/28 02:01:39;;;;;;;2.53;1.80;;;;;;;;;;5022521;28;20056;-64
2021/11/28 02:04:09;;;;;;;3.30;2.05;;;;;;;;;;5010777;28;20077;-64
2021/11/28 02:06:39;;;;;;;5.88;1.40;;;;;;;;;;5009953;28;20037;-64
2021/11/28 02:09:07;;;;;;;1.92;1.20;;;;;;;;;;5012922;28;20536;-64
2021/11/28 02:11:35;;;;;;;5.38;1.73;;;;;;;;;;5011302;28;20133;-64
2021/11/28 02:14:04;;;;;;;5.07;1.77;;;;;;;;;;5003500;28;20507;-64
2021/11/28 02:16:32;;;;;;;4.55;1.63;;;;;;;;;;5011568;28;20051;-64
2021/11/28 02:19:01;;;;;;;3.20;1.35;;;;;;;;;;5013222;28;20081;-64
2021/11/28 02:21:30;;;;;;;4.40;1.88;;;;;;;;;;5010010;28;20481;-64
2021/11/28 02:23:59;;;;;;;1.95;1.40;;;;;;;;;;5010761;28;20124;-64
2021/11/28 02:26:27;;;;;;;1.85;1.20;;;;;;;;;;5011203;28;20049;-64
2021/11/28 02:28:56;;;;;;;5.70;1.55;;;;;;;;;;5008139;28;20547;-64
2021/11/28 02:31:25;;;;;;;4.45;1.50;;;;;;;;;;5005156;28;20057;-64
2021/11/28 02:33:53;;;;;;;2.03;1.40;;;;;;;;;;5009761;28;20076;-64
2021/11/28 02:36:21;;;;;;;2.65;1.45;;;;;;;;;;5011046;28;20062;-64
2021/11/28 02:38:51;;;;;;;2.70;1.75;;;;;;;;;;5020486;28;20050;-64
2021/11/28 02:41:20;;;;;;;3.13;1.25;;;;;;;;;;5010114;28;20115;-64
2021/11/28 02:43:50;;;;;;;3.67;1.50;;;;;;;;;;5009525;28;20044;-64
2021/11/28 02:46:19;;;;;;;4.30;1.10;;;;;;;;;;5009297;28;20050;-64
2021/11/28 02:48:47;;;;;;;2.30;1.20;;;;;;;;;;5024299;28;20049;-64
2021/11/28 02:51:15;;;;;;;2.70;1.30;;;;;;;;;;5010189;28;20073;-64
2021/11/28 02:53:44;;;;;;;1.85;1.20;;;;;;;;;;5009630;28;20428;-64
2021/11/28 02:56:13;;;;;;;1.52;1.08;;;;;;;;;;5015965;28;20132;-64
2021/11/28 02:58:42;;;;;;;1.23;1.00;;;;;;;;;;5006106;28;20054;-64
2021/11/28 03:01:13;;;;;;;1.63;1.17;;;;;;;;;;5010468;28;20530;-64
2021/11/28 03:03:42;;;;;;;1.55;1.00;;;;;;;;;;5011572;28;20051;-64
2021/11/28 03:06:10;;;;;;;1.17;1.00;;;;;;;;;;5019091;28;20041;-64
2021/11/28 03:08:39;;;;;;;2.15;1.10;;;;;;;;;;5014405;28;20064;-64
2021/11/28 03:11:08;;;;;;;1.25;1.05;;;;;;;;;;5026851;28;20520;-64
2021/11/28 03:13:38;;;;;;;2.33;1.20;;;;;;;;;;5017872;28;20041;-64
2021/11/28 03:16:08;;;;;;;2.33;1.35;;;;;;;;;;5018533;28;20038;-64
2021/11/28 03:18:38;;;;;;;1.10;0.95;;;;;;;;;;5029050;28;20068;-64
2021/11/28 03:21:08;;;;;;;2.35;1.40;;;;;;;;;;5013480;28;20054;-64
2021/11/28 03:23:36;;;;;;;3.25;1.17;;;;;;;;;;5020513;28;20064;-64
2021/11/28 03:26:06;;;;;;;4.93;1.38;;;;;;;;;;5020126;28;20054;-64
2021/11/28 03:28:36;;;;;;;2.58;1.23;;;;;;;;;;5019189;28;20757;-64
2021/11/28 03:31:05;;;;;;;1.95;1.20;;;;;;;;;;5012916;28;20066;-64
2021/11/28 03:33:34;;;;;;;2.80;1.30;;;;;;;;;;5020956;28;20077;-64
2021/11/28 03:36:02;;;;;;;2.97;1.50;;;;;;;;;;5024037;28;20129;-64
2021/11/28 03:38:31;;;;;;;1.50;0.90;;;;;;;;;;5014772;28;20065;-64
2021/11/28 03:40:59;;;;;;;2.10;1.05;;;;;;;;;;5008825;28;20145;-64
2021/11/28 03:43:28;;;;;;;1.48;1.15;;;;;;;;;;5010689;28;20046;-64
2021/11/28 03:45:56;;;;;;;2.97;1.25;;;;;;;;;;5014297;28;20080;-63
2021/11/28 03:48:26;;;;;;;1.98;1.35;;;;;;;;;;5014275;28;20050;-64
2021/11/28 03:50:54;;;;;;;1.85;1.13;;;;;;;;;;5022694;28;20041;-64
2021/11/28 03:53:23;;;;;;;2.17;1.15;;;;;;;;;;5024857;28;20144;-64
2021/11/28 03:55:52;;;;;;;2.83;1.15;;;;;;;;;;5013423;28;20511;-64
2021/11/28 03:58:20;;;;;;;1.83;1.20;;;;;;;;;;5013589;28;20041;-64
2021/11/28 04:00:49;;;;;;;1.98;1.23;;;;;;;;;;5013290;28;20056;-64
2021/11/28 04:03:18;;;;;;;2.63;1.40;;;;;;;;;;5024828;28;20055;-64
2021/11/28 04:05:48;;;;;;;1.52;1.20;;;;;;;;;;5014882;28;20409;-64
2021/11/28 04:08:16;;;;;;;2.70;1.33;;;;;;;;;;5023065;28;20053;-64
2021/11/28 04:10:44;;;;;;;2.35;1.35;;;;;;;;;;5022886;28;20060;-64
2021/11/28 04:13:12;;;;;;;1.73;1.52;;;;;;;;;;5026928;28;20049;-64
2021/11/28 04:15:41;;;;;;;2.92;1.30;;;;;;;;;;5011750;28;20112;-64
2021/11/28 04:18:10;;;;;;;1.23;1.08;;;;;;;;;;5026172;28;20049;-64
2021/11/28 04:20:39;;;;;;;2.55;1.35;;;;;;;;;;5023462;28;20055;-64
2021/11/28 04:23:08;;;;;;;2.45;1.30;;;;;;;;;;5005717;28;20398;-64
2021/11/28 04:25:37;;;;;;;2.90;1.23;;;;;;;;;;5018041;28;20050;-64
2021/11/28 04:28:05;;;;;;;1.75;1.17;;;;;;;;;;5013619;28;20054;-64
2021/11/28 04:30:34;;;;;;;1.67;1.30;;;;;;;;;;5012137;28;20062;-64
2021/11/28 04:33:03;;;;;;;6.65;1.25;;;;;;;;;;5017476;28;20056;-64
2021/11/28 04:35:31;;;;;;;2.55;1.50;;;;;;;;;;5014220;28;20458;-64
2021/11/28 04:38:00;;;;;;;2.85;1.23;;;;;;;;;;5027829;28;20143;-64
2021/11/28 04:40:30;;;;;;;7.18;1.42;;;;;;;;;;5023273;28;20400;-64
2021/11/28 04:42:58;;;;;;;4.55;1.30;;;;;;;;;;5014171;28;20141;-64
2021/11/28 04:45:26;;;;;;;4.45;1.65;;;;;;;;;;5015576;28;20049;-64
2021/11/28 04:47:55;;;;;;;1.80;1.10;;;;;;;;;;5011504;28;20129;-64
2021/11/28 04:50:23;;;;;;;1.50;1.13;;;;;;;;;;5019283;28;20053;-64
2021/11/28 04:52:51;;;;;;;2.53;1.35;;;;;;;;;;5028560;28;20049;-64
2021/11/28 04:55:19;;;;;;;3.70;1.40;;;;;;;;;;5014398;28;20045;-64
2021/11/28 04:57:49;;;;;;;1.98;1.13;;;;;;;;;;5014181;28;20045;-64
2021/11/28 05:00:19;;;;;;;2.28;1.45;;;;;;;;;;5012626;28;20104;-64
2021/11/28 05:02:48;;;;;;;1.40;1.30;;;;;;;;;;5011719;28;20041;-64
2021/11/28 05:05:16;;;;;;;2.47;1.35;;;;;;;;;;5016029;28;20048;-64
2021/11/28 05:07:45;;;;;;;1.98;1.42;;;;;;;;;;5015200;28;20501;-64
2021/11/28 05:10:13;;;;;;;2.92;1.25;;;;;;;;;;5024466;28;20056;-64
2021/11/28 05:12:42;;;;;;;1.58;1.20;;;;;;;;;;5011756;28;20061;-64
2021/11/28 05:15:11;;;;;;;2.78;1.20;;;;;;;;;;4998851;28;20136;-64
2021/11/28 05:17:40;;;;;;;3.83;1.65;;;;;;;;;;5028425;28;20041;-64
2021/11/28 05:20:09;;;;;;;7.25;1.45;;;;;;;;;;5014440;28;20060;-64
2021/11/28 05:22:38;;;;;;;1.73;1.60;;;;;;;;;;5013576;28;20064;-64
2021/11/28 05:25:07;;;;;;;1.98;1.27;;;;;;;;;;5014930;28;20140;-64
2021/11/28 05:27:35;;;;;;;2.42;1.05;;;;;;;;;;5024111;28;20045;-64
2021/11/28 05:30:05;;;;;;;3.65;1.30;;;;;;;;;;5027246;28;20057;-64
2021/11/28 05:32:34;;;;;;;2.15;1.33;;;;;;;;;;5020866;28;20080;-64
2021/11/28 05:35:03;;;;;;;2.13;1.35;;;;;;;;;;5027747;28;20058;-64
2021/11/28 05:37:31;;;;;;;1.42;1.13;;;;;;;;;;5015659;28;20052;-64
2021/11/28 05:40:00;;;;;;;2.08;1.30;;;;;;;;;;5007915;28;20368;-64
2021/11/28 05:42:29;;;;;;;2.22;1.48;;;;;;;;;;5002850;28;20050;-64
2021/11/28 05:44:57;;;;;;;3.00;1.38;;;;;;;;;;5018997;28;20060;-64
2021/11/28 05:47:26;;;;;;;2.05;1.40;;;;;;;;;;5031675;28;20046;-64
2021/11/28 05:49:55;;;;;;;4.38;1.45;;;;;;;;;;5018641;28;20049;-64
2021/11/28 05:52:24;;;;;;;1.60;1.02;;;;;;;;;;5013004;28;20053;-64
2021/11/28 05:54:55;;;;;;;4.43;1.30;;;;;;;;;;5018104;28;20063;-64
2021/11/28 05:57:23;;;;;;;2.33;1.38;;;;;;;;;;5006161;28;20054;-64
2021/11/28 05:59:51;;;;;;;3.38;1.20;;;;;;;;;;5011824;28;20478;-64
2021/11/28 06:02:20;;;;;;;1.50;1.30;;;;;;;;;;5013692;28;20037;-64
2021/11/28 06:04:48;;;;;;;2.65;1.35;;;;;;;;;;5011075;28;20485;-63
2021/11/28 06:07:18;;;;;;;1.85;1.17;;;;;;;;;;5009202;28;20080;-64
2021/11/28 06:09:46;;;;;;;2.88;1.50;;;;;;;;;;5008117;28;20050;-64
2021/11/28 06:12:15;;;;;;;1.95;1.30;;;;;;;;;;5004003;28;20412;-64
2021/11/28 06:14:43;;;;;;;1.52;1.08;;;;;;;;;;5011657;28;20428;-64
2021/11/28 06:17:12;;;;;;;3.10;1.58;;;;;;;;;;5009470;28;20062;-64
2021/11/28 06:19:40;;;;;;;3.08;1.35;;;;;;;;;;5014473;28;20493;-64
2021/11/28 06:22:09;;;;;;;3.00;1.40;;;;;;;;;;5026706;28;20056;-64
2021/11/28 06:24:43;;;;;;;3.22;1.50;;;;;;;;;;4997807;28;20156;-64
2021/11/28 06:27:12;;;;;;;2.65;1.42;;;;;;;;;;5014085;28;20071;-64
2021/11/28 06:29:40;;;;;;;1.35;0.93;;;;;;;;;;5018152;28;20050;-64
2021/11/28 06:32:09;;;;;;;2.30;1.35;;;;;;;;;;5010720;28;20580;-64
2021/11/28 06:34:37;;;;;;;2.05;1.33;;;;;;;;;;5017609;28;20048;-64
2021/11/28 06:37:06;;;;;;;2.45;1.60;;;;;;;;;;5008828;28;20171;-64
2021/11/28 06:39:34;;;;;;;6.50;1.38;;;;;;;;;;5016582;28;20053;-64
2021/11/28 06:42:04;;;;;;;2.20;1.40;;;;;;;;;;5020074;28;20061;-64
2021/11/28 06:44:33;;;;;;;2.38;1.38;;;;;;;;;;5013228;28;20050;-64
2021/11/28 06:47:01;;;;;;;1.40;1.20;;;;;;;;;;5015782;28;21513;-64
2021/11/28 06:49:29;;;;;;;9.48;1.45;;;;;;;;;;5008573;28;20054;-64
2021/11/28 06:51:58;;;;;;;3.88;1.52;;;;;;;;;;5006176;28;20060;-64
2021/11/28 06:54:26;;;;;;;4.55;1.70;;;;;;;;;;5017443;28;20054;-64
2021/11/28 06:56:54;;;;;;;2.28;1.23;;;;;;;;;;5020910;28;20072;-64
2021/11/28 06:59:26;;;;;;;3.15;1.00;;;;;;;;;;5009236;28;20045;-64
2021/11/28 07:01:54;;;;;;;2.15;1.77;;;;;;;;;;5007634;28;20152;-64
2021/11/28 07:04:23;;;;;;;1.58;1.10;;;;;;;;;;5005538;28;20145;-64
2021/11/28 07:06:51;;;;;;;2.47;1.50;;;;;;;;;;5015589;28;20048;-64
2021/11/28 07:09:20;;;;;;;2.70;1.42;;;;;;;;;;5021872;28;20049;-64
2021/11/28 07:11:48;;;;;;;3.10;1.40;;;;;;;;;;5003859;28;20050;-65
2021/11/28 07:14:16;;;;;;;2.20;1.60;;;;;;;;;;5019060;28;20071;-64
2021/11/28 07:16:46;;;;;;;3.38;1.60;;;;;;;;;;5023205;28;20049;-64
2021/11/28 07:19:14;;;;;;;3.25;1.50;;;;;;;;;;5007506;28;20607;-64
2021/11/28 07:21:43;;;;;;;2.22;1.48;;;;;;;;;;5009138;28;20499;-65
2021/11/28 07:24:11;;;;;;;2.92;1.75;;;;;;;;;;5008199;28;20104;-64
2021/11/28 07:26:40;;;;;;;2.40;1.60;;;;;;;;;;5007034;28;20060;-64
2021/11/28 07:29:08;;;;;;;2.38;1.58;;;;;;;;;;5018942;28;20576;-64
2021/11/28 07:31:36;;;;;;;1.95;1.33;;;;;;;;;;5010466;28;20498;-64
2021/11/28 07:34:06;;;;;;;7.80;1.40;;;;;;;;;;5014420;28;20054;-64
2021/11/28 07:36:34;;;;;;;6.97;1.92;;;;;;;;;;5022001;28;20480;-64
2021/11/28 07:39:03;;;;;;;4.03;1.40;;;;;;;;;;5011139;28;20350;-64
2021/11/28 07:41:31;;;;;;;4.85;1.60;;;;;;;;;;5006908;28;20053;-64
2021/11/28 07:44:00;;;;;;;5.38;1.67;;;;;;;;;;5007591;28;20108;-64
2021/11/28 07:46:29;;;;;;;5.25;1.58;;;;;;;;;;5009440;28;20499;-64
2021/11/28 07:48:57;;;;;;;4.95;1.70;;;;;;;;;;5007928;28;20054;-64
2021/11/28 07:51:27;;;;;;;4.70;1.50;;;;;;;;;;5014945;28;20045;-64
2021/11/28 07:53:56;;;;;;;4.28;1.40;;;;;;;;;;5009794;28;20050;-64
2021/11/28 07:56:25;;;;;;;2.78;1.40;;;;;;;;;;5013224;28;20076;-64
2021/11/28 07:58:53;;;;;;;4.18;1.52;;;;;;;;;;5018746;28;20076;-64
2021/11/28 08:01:22;;;;;;;4.75;1.52;;;;;;;;;;5020412;28;20497;-64
2021/11/28 08:03:51;;;;;;;4.32;1.73;;;;;;;;;;5012678;28;20050;-64
2021/11/28 08:06:20;;;;;;;6.57;1.30;;;;;;;;;;5007320;28;20583;-64
2021/11/28 08:08:49;;;;;;;1.92;1.17;;;;;;;;;;5000747;28;20428;-64
2021/11/28 08:11:17;;;;;;;3.33;1.42;;;;;;;;;;5010698;28;20057;-64
2021/11/28 08:13:47;;;;;;;2.30;1.02;;;;;;;;;;5009574;28;20205;-64
2021/11/28 08:16:16;;;;;;;3.05;1.13;;;;;;;;;;5010241;28;20136;-64
2021/11/28 08:18:45;;;;;;;4.00;1.25;;;;;;;;;;5009773;28;20052;-64
2021/11/28 08:21:14;;;;;;;2.63;1.20;;;;;;;;;;5020576;28;20565;-64
2021/11/28 08:23:43;;;;;;;2.03;1.10;;;;;;;;;;5022290;28;20049;-64
2021/11/28 08:26:13;;;;;;;6.22;1.40;;;;;;;;;;5011508;28;20132;-64
2021/11/28 08:28:44;;;;;;;1.55;1.10;;;;;;;;;;5012982;28;20077;-64
2021/11/28 08:31:12;;;;;;;2.63;1.48;;;;;;;;;;5017221;28;20421;-64
2021/11/28 08:33:41;;;;;;;3.28;1.10;;;;;;;;;;5004326;28;20069;-64
2021/11/28 08:36:10;;;;;;;3.40;1.00;;;;;;;;;;5026374;28;20133;-64
2021/11/28 08:38:42;;;;;;;3.15;1.08;;;;;;;;;;5023208;28;20476;-64
2021/11/28 08:41:12;;;;;;;1.92;1.00;;;;;;;;;;5018840;28;20104;-64
2021/11/28 08:43:42;;;;;;;3.28;1.48;;;;;;;;;;5020164;28;20083;-64
2021/11/28 08:46:11;;;;;;;1.55;1.05;;;;;;;;;;5009424;28;20099;-64
2021/11/28 08:48:40;;;;;;;1.35;0.93;;;;;;;;;;5019794;28;20139;-64
2021/11/28 08:51:09;;;;;;;2.60;0.90;;;;;;;;;;5029026;28;20664;-64
2021/11/28 08:53:38;;;;;;;4.80;1.10;;;;;;;;;;5022303;28;20057;-64
2021/11/28 08:56:07;;;;;;;1.92;0.73;;;;;;;;;;5008080;28;20054;-64
2021/11/28 08:58:38;;;;;;;1.70;1.02;;;;;;;;;;5010965;28;20046;-64
2021/11/28 09:01:07;;;;;;;1.42;1.02;;;;;;;;;;5012568;28;20108;-64
2021/11/28 09:03:36;;;;;;;3.83;1.33;;;;;;;;;;5004850;28;20058;-64
2021/11/28 09:06:04;;;;;;;1.52;0.80;;;;;;;;;;5007205;28;20349;-64
2021/11/28 09:08:35;;;;;;;1.38;0.80;;;;;;;;;;5008342;28;20096;-64
2021/11/28 09:11:05;;;;;;;6.38;1.20;;;;;;;;;;5007652;28;20045;-64
2021/11/28 09:13:33;;;;;;;2.33;0.90;;;;;;;;;;5007925;28;20053;-64
2021/11/28 09:16:04;;;;;;;1.92;0.95;;;;;;;;;;5008301;28;20504;-64
2021/11/28 09:18:36;;;;;;;1.52;0.70;;;;;;;;;;5007861;28;20125;-64
2021/11/28 09:21:05;;;;;;;2.10;0.50;;;;;;;;;;5006131;28;20050;-64
2021/11/28 09:26:17;;;;;;;1.83;1.00;;;;;;;;;;4963546;28;20096;-64
2021/11/28 09:28:46;;;;;;;1.30;0.80;;;;;;;;;;5005450;28;20045;-64
2021/11/28 09:31:16;;;;;;;0.98;0.68;;;;;;;;;;5005720;28;20057;-64
2021/11/28 09:33:45;;;;;;;5.78;0.93;;;;;;;;;;5004067;28;20159;-64
2021/11/28 09:36:14;;;;;;;3.25;0.90;;;;;;;;;;5008785;28;20326;-64
2021/11/28 09:38:43;;;;;;;2.33;0.85;;;;;;;;;;5007277;28;20081;-64
2021/11/28 09:41:12;;;;;;;2.60;1.20;;;;;;;;;;5007380;28;20164;-64
2021/11/28 09:43:42;;;;;;;3.65;1.10;;;;;;;;;;5005922;28;20365;-64
2021/11/28 09:46:13;;;;;;;1.40;1.00;;;;;;;;;;5008193;28;20053;-64
2021/11/28 09:48:43;;;;;;;1.52;1.00;;;;;;;;;;5009014;28;20074;-64
2021/11/28 09:51:12;;;;;;;1.20;0.90;;;;;;;;;;5008926;28;20038;-64
2021/11/28 09:53:44;;;;;;;4.38;1.08;;;;;;;;;;5009966;28;20045;-64
2021/11/28 09:56:13;;;;;;;1.35;0.90;;;;;;;;;;5008644;28;20062;-64
2021/11/28 09:58:42;;;;;;;2.92;1.05;;;;;;;;;;5007621;28;20057;-64
2021/11/28 10:01:11;;;;;;;2.70;1.20;;;;;;;;;;5007692;28;20057;-64
2021/11/28 10:03:40;;;;;;;1.73;1.17;;;;;;;;;;5005475;28;20046;-64
2021/11/28 10:06:11;;;;;;;2.13;1.10;;;;;;;;;;5007020;28;20045;-64
2021/11/28 10:08:40;;;;;;;4.03;1.60;;;;;;;;;;5001134;28;20053;-64
2021/11/28 10:11:26;;;;;;;2.03;1.42;;;;;;;;;;5003543;28;20509;-64
2021/11/28 10:13:56;;;;;;;2.78;1.45;;;;;;;;;;5005816;28;20049;-64
2021/11/28 10:16:25;;;;;;;1.98;1.15;;;;;;;;;;5009202;28;20050;-64
2021/11/28 10:18:54;;;;;;;3.38;1.20;;;;;;;;;;5004548;28;20045;-64
2021/11/28 10:21:24;;;;;;;1.55;1.02;;;;;;;;;;5013313;28;20053;-64
2021/11/28 10:24:06;;;;;;;1.13;1.02;;;;;;;;;;5005924;28;20057;-64
2021/11/28 10:26:37;;;;;;;0.80;0.70;;;;;;;;;;5009625;28;20088;-64
2021/11/28 10:29:07;;;;;;;1.75;1.25;;;;;;;;;;5008150;28;20097;-65
2021/11/28 10:31:46;;;;;;;1.90;1.10;;;;;;;;;;5006339;28;20046;-65
2021/11/28 10:34:16;;;;;;;4.63;1.33;;;;;;;;;;4992211;28;20049;-65
2021/11/28 10:36:47;;;;;;;1.63;0.98;;;;;;;;;;5001089;28;20103;-65
2021/11/28 10:39:17;;;;;;;2.67;0.90;;;;;;;;;;5000278;28;20042;-65
2021/11/28 10:41:48;;;;;;;1.63;1.20;;;;;;;;;;5001698;28;20120;-66
2021/11/28 10:44:17;;;;;;;2.15;0.93;;;;;;;;;;4998165;28;20065;-65
2021/11/28 10:46:47;;;;;;;4.90;0.85;;;;;;;;;;4998227;28;20177;-65
2021/11/28 10:49:17;;;;;;;1.95;1.25;;;;;;;;;;5000337;28;20082;-65
2021/11/28 10:51:48;;;;;;;3.08;1.38;;;;;;;;;;4998712;28;20056;-66
2021/11/28 10:54:28;;;;;;;3.05;1.23;;;;;;;;;;5006574;28;20144;-65
2021/11/28 10:57:04;;;;;;;2.40;1.30;;;;;;;;;;5000244;28;20060;-66
2021/11/28 10:59:33;;;;;;;3.03;1.52;;;;;;;;;;4999350;28;20046;-65
2021/11/28 11:02:02;;;;;;;1.50;1.08;;;;;;;;;;4997055;28;20054;-65
2021/11/28 11:04:32;;;;;;;4.57;1.30;;;;;;;;;;4997711;28;20485;-65
2021/11/28 11:07:09;;;;;;;2.85;1.20;;;;;;;;;;4998601;28;20058;-65
2021/11/28 11:09:41;;;;;;;3.67;1.27;;;;;;;;;;4999137;28;20508;-65
2021/11/28 11:12:20;;;;;;;4.28;1.98;;;;;;;;;;4998141;28;20149;-65
2021/11/28 11:14:49;;;;;;;2.92;1.35;;;;;;;;;;5002177;28;20050;-65
2021/11/28 11:17:22;;;;;;;3.30;1.52;;;;;;;;;;5003032;28;20052;-65
2021/11/28 11:19:51;;;;;;;1.52;0.73;;;;;;;;;;4999899;28;20149;-65
2021/11/28 11:22:25;;;;;;;5.93;1.58;;;;;;;;;;4996837;28;20050;-65
2021/11/28 11:24:56;;;;;;;2.13;1.37;;;;;;;;;;4996804;28;20802;-65
2021/11/28 11:27:27;;;;;;;1.50;1.15;;;;;;;;;;5003081;28;20050;-65
2021/11/28 11:30:00;;;;;;;3.08;1.45;;;;;;;;;;5006885;28;20057;-65
2021/11/28 11:32:40;;;;;;;3.17;1.30;;;;;;;;;;5008142;28;20485;-66
2021/11/28 11:35:10;;;;;;;3.45;1.17;;;;;;;;;;5006422;28;20169;-65
2021/11/28 11:37:40;;;;;;;1.92;1.13;;;;;;;;;;5006018;28;20046;-65
2021/11/28 11:40:10;;;;;;;2.83;1.52;;;;;;;;;;5001725;28;20515;-65
2021/11/28 11:42:40;;;;;;;1.67;1.10;;;;;;;;;;5003977;28;20042;-65
2021/11/28 11:45:09;;;;;;;2.72;1.15;;;;;;;;;;5003075;28;20046;-65
2021/11/28 11:47:39;;;;;;;1.25;0.98;;;;;;;;;;5004104;28;20108;-65
2021/11/28 11:50:09;;;;;;;2.03;1.40;;;;;;;;;;5002395;28;20425;-64
2021/11/28 11:52:38;;;;;;;2.05;1.20;;;;;;;;;;5003820;28;20038;-64
2021/11/28 11:55:11;;;;;;;8.13;2.00;;;;;;;;;;5005353;28;20065;-64
2021/11/28 11:57:41;;;;;;;5.07;1.48;;;;;;;;;;5002516;28;21483;-64
2021/11/28 12:00:16;;;;;;;2.00;1.30;;;;;;;;;;5005356;28;20073;-64
2021/11/28 12:02:46;;;;;;;4.28;1.52;;;;;;;;;;5004833;28;20053;-65
2021/11/28 12:05:32;;;;;;;6.70;2.00;;;;;;;;;;5005203;28;20054;-65
2021/11/28 12:08:03;;;;;;;4.45;1.27;;;;;;;;;;5007938;28;20100;-65
2021/11/28 12:10:37;;;;;;;2.45;1.27;;;;;;;;;;5008177;28;20141;-64
2021/11/28 12:13:06;;;;;;;2.30;1.38;;;;;;;;;;5002225;28;20145;-64
2021/11/28 12:15:36;;;;;;;3.63;1.38;;;;;;;;;;5005023;28;20046;-64
2021/11/28 12:18:05;;;;;;;2.53;1.20;;;;;;;;;;5001870;28;20045;-64
2021/11/28 12:20:58;;;;;;;2.85;1.55;;;;;;;;;;5002844;28;20046;-64
2021/11/28 12:23:45;;;;;;;2.63;1.50;;;;;;;;;;4984198;28;21064;-64
2021/11/28 12:26:30;;;;;;;3.38;1.20;;;;;;;;;;5008769;28;20390;-64
2021/11/28 12:29:01;;;;;;;4.15;1.70;;;;;;;;;;5008242;28;20057;-64
2021/11/28 12:31:31;;;;;;;7.15;1.65;;;;;;;;;;5007689;28;20415;-64
2021/11/28 12:34:02;;;;;;;3.63;1.50;;;;;;;;;;5007794;28;20072;-64
2021/11/28 12:36:44;;;;;;;2.08;1.50;;;;;;;;;;5006680;28;20405;-64
2021/11/28 12:39:32;;;;;;;6.95;1.30;;;;;;;;;;5003153;28;20762;-64
2021/11/28 12:42:02;;;;;;;3.53;1.65;;;;;;;;;;5001978;28;20516;-64
2021/11/28 12:44:32;;;;;;;7.80;1.40;;;;;;;;;;5002333;28;20486;-64
2021/11/28 12:47:02;;;;;;;2.42;1.60;;;;;;;;;;5003551;28;20197;-64
2021/11/28 12:49:33;;;;;;;3.33;1.50;;;;;;;;;;5003400;28;20064;-64
2021/11/28 12:52:36;;;;;;;2.00;1.30;;;;;;;;;;5001342;28;20720;-65
2021/11/28 12:55:09;;;;;;;3.20;1.50;;;;;;;;;;5006259;28;20104;-64
2021/11/28 12:57:38;;;;;;;3.97;1.48;;;;;;;;;;5002404;28;20050;-64
2021/11/28 13:00:18;;;;;;;5.15;1.60;;;;;;;;;;5008029;28;20486;-64
2021/11/28 13:02:47;;;;;;;5.60;2.17;;;;;;;;;;5007125;28;20497;-64
2021/11/28 13:05:43;;;;;;;8.13;2.38;;;;;;;;;;5007711;28;20522;-64
2021/11/28 13:08:30;;;;;;;3.00;2.03;;;;;;;;;;4973359;28;20065;-64
2021/11/28 13:11:20;;;;;;;3.40;2.08;;;;;;;;;;5007719;28;20046;-64
2021/11/28 13:13:49;;;;;;;9.40;2.28;;;;;;;;;;5014360;28;20046;-64
2021/11/28 13:16:23;;;;;;;4.88;2.10;;;;;;;;;;5015216;28;20128;-64
2021/11/28 13:18:53;;;;;;;6.95;2.22;;;;;;;;;;5003508;28;20390;-65
2021/11/28 13:21:24;;;;;;;5.65;2.00;;;;;;;;;;5003756;28;20630;-64
2021/11/28 13:23:54;;;;;;;3.83;2.33;;;;;;;;;;5001417;28;20060;-65
2021/11/28 13:26:24;;;;;;;6.72;2.35;;;;;;;;;;5003854;28;20046;-65
2021/11/28 13:28:56;;;;;;;9.20;2.67;;;;;;;;;;5004019;28;20049;-65
2021/11/28 13:31:27;;;;;;;4.90;2.95;;;;;;;;;;5002752;28;20044;-65
2021/11/28 13:33:57;;;;;;;7.53;2.58;;;;;;;;;;5005741;28;20046;-65
2021/11/28 13:36:27;;;;;;;4.40;2.50;;;;;;;;;;5004100;28;20450;-65
2021/11/28 13:38:57;;;;;;;6.10;2.70;;;;;;;;;;5003543;28;20524;-64
2021/11/28 13:41:26;;;;;;;4.72;3.10;;;;;;;;;;5003177;28;20559;-64
2021/11/28 13:43:56;;;;;;;6.53;2.95;;;;;;;;;;5002643;28;20041;-65
2021/11/28 13:46:33;;;;;;;7.65;3.15;;;;;;;;;;5002765;28;20065;-65
2021/11/28 13:49:04;;;;;;;4.70;2.60;;;;;;;;;;5003651;28;20085;-65
2021/11/28 13:51:38;;;;;;;4.70;2.67;;;;;;;;;;5010574;28;20050;-65
2021/11/28 13:54:08;;;;;;;5.17;3.30;;;;;;;;;;5006084;28;20050;-65
2021/11/28 13:56:41;;;;;;;6.63;3.22;;;;;;;;;;5009261;28;20359;-65
2021/11/28 13:59:10;;;;;;;6.53;3.30;;;;;;;;;;5008919;28;20045;-64
2021/11/28 14:01:41;;;;;;;7.28;3.30;;;;;;;;;;5003731;28;20046;-64
2021/11/28 14:04:20;;;;;;;6.75;3.38;;;;;;;;;;5008463;28;20099;-64
2021/11/28 14:06:49;;;;;;;7.45;3.50;;;;;;;;;;5005449;28;20084;-64
2021/11/28 14:09:18;;;;;;;4.80;3.03;;;;;;;;;;5002591;28;20053;-64
2021/11/28 14:11:49;;;;;;;5.72;3.20;;;;;;;;;;5000279;28;20528;-64
2021/11/28 14:14:19;;;;;;;5.80;3.45;;;;;;;;;;5004934;28;20054;-64
2021/11/28 14:16:51;;;;;;;5.10;3.00;;;;;;;;;;5001312;28;20410;-64
2021/11/28 14:19:33;;;;;;;8.80;3.63;;;;;;;;;;5015396;28;20585;-64
2021/11/28 14:22:02;;;;;;;5.88;3.28;;;;;;;;;;5004416;28;20492;-64
2021/11/28 14:24:41;;;;;;;6.65;3.33;;;;;;;;;;5010340;28;20088;-64
2021/11/28 14:27:15;;;;;;;5.60;3.45;;;;;;;;;;5008367;28;20077;-64
2021/11/28 14:29:44;;;;;;;6.43;3.60;;;;;;;;;;5001062;28;20140;-64
2021/11/28 14:32:22;;;;;;;6.57;3.38;;;;;;;;;;5001355;28;20100;-64
2021/11/28 14:34:51;;;;;;;8.50;3.47;;;;;;;;;;5002122;28;20060;-64
2021/11/28 14:37:20;;;;;;;6.93;3.65;;;;;;;;;;5008489;28;20053;-64
2021/11/28 14:39:49;;;;;;;5.63;3.30;;;;;;;;;;5004593;28;20188;-64
2021/11/28 14:42:20;;;;;;;7.85;3.88;;;;;;;;;;5003750;28;20049;-64
2021/11/28 14:44:50;;;;;;;6.75;2.90;;;;;;;;;;5003997;28;20093;-64
2021/11/28 14:47:24;;;;;;;8.15;3.42;;;;;;;;;;4998420;28;20049;-64
2021/11/28 14:49:53;;;;;;;5.97;3.70;;;;;;;;;;5001507;28;20214;-64
2021/11/28 14:52:30;;;;;;;6.70;3.75;;;;;;;;;;5006528;28;20054;-64
2021/11/28 14:55:14;;;;;;;6.28;3.55;;;;;;;;;;5008793;28;20450;-64
2021/11/28 14:57:47;;;;;;;5.63;3.53;;;;;;;;;;5002511;28;20199;-64
2021/11/28 15:00:34;;;;;;;4.95;3.25;;;;;;;;;;5000561;28;20065;-64
2021/11/28 15:03:12;;;;;;;7.05;3.72;;;;;;;;;;5005841;28;20057;-64
2021/11/28 15:05:41;;;;;;;8.48;3.38;;;;;;;;;;5004658;28;20122;-64